sensor_id;sensor_type;location;lat;lon;timestamp;P1;durP1;ratioP1;P2;durP2;ratioP2
5754;SDS011;2902;42.130;24.732;2023-10-08T00:01:42;14.60;;;8.17;;
5754;SDS011;2902;42.130;24.732;2023-10-08T00:04:09;14.07;;;7.77;;
5754;SDS011;2902;42.130;24.732;2023-10-08T00:06:36;13.87;;;8.30;;
5754;SDS011;2902;42.130;24.732;2023-10-08T00:09:04;13.67;;;8.17;;
5754;SDS011;2902;42.130;24.732;2023-10-08T00:11:35;13.63;;;7.67;;
5754;SDS011;2902;42.130;24.732;2023-10-08T00:14:02;22.47;;;9.37;;
5754;SDS011;2902;42.130;24.732;2023-10-08T00:16:34;12.83;;;7.73;;
5754;SDS011;2902;42.130;24.732;2023-10-08T00:19:04;13.57;;;8.37;;
5754;SDS011;2902;42.130;24.732;2023-10-08T00:21:34;16.63;;;8.17;;
5754;SDS011;2902;42.130;24.732;2023-10-08T00:24:03;16.33;;;8.37;;
5754;SDS011;2902;42.130;24.732;2023-10-08T00:26:32;15.20;;;8.50;;
5754;SDS011;2902;42.130;24.732;2023-10-08T00:29:02;14.87;;;7.87;;
5754;SDS011;2902;42.130;24.732;2023-10-08T00:31:41;13.83;;;8.47;;
5754;SDS011;2902;42.130;24.732;2023-10-08T00:34:10;13.53;;;8.43;;
5754;SDS011;2902;42.130;24.732;2023-10-08T00:36:38;13.77;;;8.13;;
5754;SDS011;2902;42.130;24.732;2023-10-08T00:39:06;14.63;;;7.90;;
5754;SDS011;2902;42.130;24.732;2023-10-08T00:41:38;15.90;;;8.63;;
5754;SDS011;2902;42.130;24.732;2023-10-08T00:44:10;12.63;;;7.67;;
5754;SDS011;2902;42.130;24.732;2023-10-08T00:46:39;15.50;;;7.70;;
5754;SDS011;2902;42.130;24.732;2023-10-08T00:49:13;9.60;;;6.90;;
5754;SDS011;2902;42.130;24.732;2023-10-08T00:51:50;17.10;;;7.97;;
5754;SDS011;2902;42.130;24.732;2023-10-08T00:54:29;14.83;;;7.43;;
5754;SDS011;2902;42.130;24.732;2023-10-08T00:56:58;9.50;;;7.50;;
5754;SDS011;2902;42.130;24.732;2023-10-08T00:59:30;12.83;;;7.30;;
5754;SDS011;2902;42.130;24.732;2023-10-08T01:02:06;10.97;;;7.50;;
5754;SDS011;2902;42.130;24.732;2023-10-08T01:04:39;13.50;;;7.90;;
5754;SDS011;2902;42.130;24.732;2023-10-08T01:07:09;11.97;;;7.10;;
5754;SDS011;2902;42.130;24.732;2023-10-08T01:09:40;10.47;;;6.37;;
5754;SDS011;2902;42.130;24.732;2023-10-08T01:12:09;10.53;;;7.60;;
5754;SDS011;2902;42.130;24.732;2023-10-08T01:14:42;10.57;;;6.73;;
5754;SDS011;2902;42.130;24.732;2023-10-08T01:17:09;12.10;;;6.07;;
5754;SDS011;2902;42.130;24.732;2023-10-08T01:19:38;10.20;;;5.93;;
5754;SDS011;2902;42.130;24.732;2023-10-08T01:22:08;8.90;;;5.60;;
5754;SDS011;2902;42.130;24.732;2023-10-08T01:24:42;8.17;;;5.90;;
5754;SDS011;2902;42.130;24.732;2023-10-08T01:27:10;7.30;;;5.77;;
5754;SDS011;2902;42.130;24.732;2023-10-08T01:29:37;6.30;;;5.10;;
5754;SDS011;2902;42.130;24.732;2023-10-08T01:32:05;7.27;;;5.67;;
5754;SDS011;2902;42.130;24.732;2023-10-08T01:34:36;8.60;;;6.13;;
5754;SDS011;2902;42.130;24.732;2023-10-08T01:37:04;11.50;;;6.90;;
5754;SDS011;2902;42.130;24.732;2023-10-08T01:39:36;9.10;;;6.30;;
5754;SDS011;2902;42.130;24.732;2023-10-08T01:42:05;10.33;;;6.57;;
5754;SDS011;2902;42.130;24.732;2023-10-08T01:44:40;8.20;;;6.80;;
5754;SDS011;2902;42.130;24.732;2023-10-08T01:47:07;8.33;;;5.87;;
5754;SDS011;2902;42.130;24.732;2023-10-08T01:49:36;8.13;;;7.10;;
5754;SDS011;2902;42.130;24.732;2023-10-08T01:52:04;9.93;;;6.13;;
5754;SDS011;2902;42.130;24.732;2023-10-08T01:54:39;10.60;;;6.20;;
5754;SDS011;2902;42.130;24.732;2023-10-08T01:57:06;9.73;;;6.00;;
5754;SDS011;2902;42.130;24.732;2023-10-08T01:59:34;8.50;;;5.80;;
5754;SDS011;2902;42.130;24.732;2023-10-08T02:02:02;6.90;;;5.13;;
5754;SDS011;2902;42.130;24.732;2023-10-08T02:04:31;9.37;;;5.37;;
5754;SDS011;2902;42.130;24.732;2023-10-08T02:07:00;9.60;;;5.23;;
5754;SDS011;2902;42.130;24.732;2023-10-08T02:09:28;9.90;;;5.37;;
5754;SDS011;2902;42.130;24.732;2023-10-08T02:11:57;6.77;;;4.83;;
5754;SDS011;2902;42.130;24.732;2023-10-08T02:14:23;7.70;;;4.50;;
5754;SDS011;2902;42.130;24.732;2023-10-08T02:16:50;7.30;;;5.00;;
5754;SDS011;2902;42.130;24.732;2023-10-08T02:19:21;9.00;;;5.07;;
5754;SDS011;2902;42.130;24.732;2023-10-08T02:21:52;5.67;;;4.73;;
5754;SDS011;2902;42.130;24.732;2023-10-08T02:24:19;11.07;;;4.80;;
5754;SDS011;2902;42.130;24.732;2023-10-08T02:26:49;5.53;;;4.07;;
5754;SDS011;2902;42.130;24.732;2023-10-08T02:29:18;6.97;;;5.33;;
5754;SDS011;2902;42.130;24.732;2023-10-08T02:31:45;7.37;;;6.13;;
5754;SDS011;2902;42.130;24.732;2023-10-08T02:34:12;11.97;;;6.83;;
5754;SDS011;2902;42.130;24.732;2023-10-08T02:36:39;14.57;;;8.53;;
5754;SDS011;2902;42.130;24.732;2023-10-08T02:39:07;16.10;;;7.97;;
5754;SDS011;2902;42.130;24.732;2023-10-08T02:41:41;13.20;;;8.10;;
5754;SDS011;2902;42.130;24.732;2023-10-08T02:44:11;13.77;;;7.83;;
5754;SDS011;2902;42.130;24.732;2023-10-08T02:46:40;11.93;;;7.10;;
5754;SDS011;2902;42.130;24.732;2023-10-08T02:49:09;9.73;;;6.60;;
5754;SDS011;2902;42.130;24.732;2023-10-08T02:51:37;9.10;;;5.83;;
5754;SDS011;2902;42.130;24.732;2023-10-08T02:54:06;8.33;;;5.43;;
5754;SDS011;2902;42.130;24.732;2023-10-08T02:56:41;5.80;;;4.90;;
5754;SDS011;2902;42.130;24.732;2023-10-08T02:59:09;7.17;;;4.97;;
5754;SDS011;2902;42.130;24.732;2023-10-08T03:01:37;5.60;;;5.07;;
5754;SDS011;2902;42.130;24.732;2023-10-08T03:04:07;6.30;;;4.97;;
5754;SDS011;2902;42.130;24.732;2023-10-08T03:06:42;6.50;;;4.70;;
5754;SDS011;2902;42.130;24.732;2023-10-08T03:09:09;8.23;;;5.17;;
5754;SDS011;2902;42.130;24.732;2023-10-08T03:11:38;11.33;;;5.23;;
5754;SDS011;2902;42.130;24.732;2023-10-08T03:14:11;4.50;;;4.10;;
5754;SDS011;2902;42.130;24.732;2023-10-08T03:16:47;5.83;;;4.30;;
5754;SDS011;2902;42.130;24.732;2023-10-08T03:19:16;10.67;;;5.20;;
5754;SDS011;2902;42.130;24.732;2023-10-08T03:21:45;13.70;;;5.77;;
5754;SDS011;2902;42.130;24.732;2023-10-08T03:24:16;15.80;;;6.23;;
5754;SDS011;2902;42.130;24.732;2023-10-08T03:27:04;10.40;;;6.10;;
5754;SDS011;2902;42.130;24.732;2023-10-08T03:29:32;11.17;;;5.97;;
5754;SDS011;2902;42.130;24.732;2023-10-08T03:32:05;7.80;;;5.50;;
5754;SDS011;2902;42.130;24.732;2023-10-08T03:34:39;5.67;;;4.97;;
5754;SDS011;2902;42.130;24.732;2023-10-08T03:37:08;13.23;;;5.17;;
5754;SDS011;2902;42.130;24.732;2023-10-08T03:39:44;9.93;;;5.33;;
5754;SDS011;2902;42.130;24.732;2023-10-08T03:42:25;8.63;;;5.20;;
5754;SDS011;2902;42.130;24.732;2023-10-08T03:44:55;11.07;;;5.97;;
5754;SDS011;2902;42.130;24.732;2023-10-08T03:47:22;11.50;;;5.87;;
5754;SDS011;2902;42.130;24.732;2023-10-08T03:49:52;12.03;;;6.67;;
5754;SDS011;2902;42.130;24.732;2023-10-08T03:52:19;11.27;;;5.93;;
5754;SDS011;2902;42.130;24.732;2023-10-08T03:54:48;6.70;;;5.50;;
5754;SDS011;2902;42.130;24.732;2023-10-08T03:57:29;5.77;;;4.80;;
5754;SDS011;2902;42.130;24.732;2023-10-08T04:00:07;10.23;;;4.53;;
5754;SDS011;2902;42.130;24.732;2023-10-08T04:02:38;8.03;;;5.30;;
5754;SDS011;2902;42.130;24.732;2023-10-08T04:05:08;4.97;;;4.37;;
5754;SDS011;2902;42.130;24.732;2023-10-08T04:07:45;6.57;;;4.63;;
5754;SDS011;2902;42.130;24.732;2023-10-08T04:10:26;8.63;;;4.57;;
5754;SDS011;2902;42.130;24.732;2023-10-08T04:13:14;4.93;;;4.03;;
5754;SDS011;2902;42.130;24.732;2023-10-08T04:15:41;4.33;;;3.93;;
5754;SDS011;2902;42.130;24.732;2023-10-08T04:18:09;5.73;;;4.13;;
5754;SDS011;2902;42.130;24.732;2023-10-08T04:20:37;6.53;;;4.13;;
5754;SDS011;2902;42.130;24.732;2023-10-08T04:23:05;4.00;;;3.60;;
5754;SDS011;2902;42.130;24.732;2023-10-08T04:25:38;4.23;;;3.90;;
5754;SDS011;2902;42.130;24.732;2023-10-08T04:28:07;4.10;;;3.80;;
5754;SDS011;2902;42.130;24.732;2023-10-08T04:30:38;4.60;;;3.63;;
5754;SDS011;2902;42.130;24.732;2023-10-08T04:33:07;6.70;;;4.17;;
5754;SDS011;2902;42.130;24.732;2023-10-08T04:35:40;6.73;;;3.80;;
5754;SDS011;2902;42.130;24.732;2023-10-08T04:38:13;6.57;;;3.80;;
5754;SDS011;2902;42.130;24.732;2023-10-08T04:40:43;5.90;;;3.63;;
5754;SDS011;2902;42.130;24.732;2023-10-08T04:43:14;6.53;;;3.63;;
5754;SDS011;2902;42.130;24.732;2023-10-08T04:45:47;5.07;;;3.93;;
5754;SDS011;2902;42.130;24.732;2023-10-08T04:48:14;7.73;;;3.97;;
5754;SDS011;2902;42.130;24.732;2023-10-08T04:50:46;10.20;;;3.87;;
5754;SDS011;2902;42.130;24.732;2023-10-08T04:53:23;7.10;;;3.70;;
5754;SDS011;2902;42.130;24.732;2023-10-08T04:55:56;7.17;;;3.47;;
5754;SDS011;2902;42.130;24.732;2023-10-08T04:58:27;5.67;;;3.60;;
5754;SDS011;2902;42.130;24.732;2023-10-08T05:00:59;3.67;;;3.20;;
5754;SDS011;2902;42.130;24.732;2023-10-08T05:03:42;6.27;;;3.47;;
5754;SDS011;2902;42.130;24.732;2023-10-08T05:06:23;6.27;;;3.57;;
5754;SDS011;2902;42.130;24.732;2023-10-08T05:09:19;7.67;;;3.77;;
5754;SDS011;2902;42.130;24.732;2023-10-08T05:11:49;3.97;;;3.40;;
5754;SDS011;2902;42.130;24.732;2023-10-08T05:14:35;3.83;;;3.37;;
5754;SDS011;2902;42.130;24.732;2023-10-08T05:17:10;5.03;;;3.10;;
5754;SDS011;2902;42.130;24.732;2023-10-08T05:19:46;4.03;;;3.13;;
5754;SDS011;2902;42.130;24.732;2023-10-08T05:22:21;4.90;;;3.80;;
5754;SDS011;2902;42.130;24.732;2023-10-08T05:25:10;5.20;;;3.30;;
5754;SDS011;2902;42.130;24.732;2023-10-08T05:28:00;7.07;;;3.53;;
5754;SDS011;2902;42.130;24.732;2023-10-08T05:30:34;4.43;;;3.20;;
5754;SDS011;2902;42.130;24.732;2023-10-08T05:33:07;4.93;;;3.07;;
5754;SDS011;2902;42.130;24.732;2023-10-08T05:35:48;5.40;;;3.73;;
5754;SDS011;2902;42.130;24.732;2023-10-08T05:38:16;9.77;;;3.50;;
5754;SDS011;2902;42.130;24.732;2023-10-08T05:40:49;5.93;;;2.97;;
5754;SDS011;2902;42.130;24.732;2023-10-08T05:43:52;5.77;;;3.23;;
5754;SDS011;2902;42.130;24.732;2023-10-08T05:46:39;6.77;;;3.00;;
5754;SDS011;2902;42.130;24.732;2023-10-08T05:49:12;6.87;;;3.10;;
5754;SDS011;2902;42.130;24.732;2023-10-08T05:52:03;6.73;;;3.70;;
5754;SDS011;2902;42.130;24.732;2023-10-08T05:54:47;6.33;;;4.03;;
5754;SDS011;2902;42.130;24.732;2023-10-08T05:57:41;9.13;;;3.00;;
5754;SDS011;2902;42.130;24.732;2023-10-08T06:00:17;9.50;;;3.40;;
5754;SDS011;2902;42.130;24.732;2023-10-08T06:03:11;6.53;;;2.87;;
5754;SDS011;2902;42.130;24.732;2023-10-08T06:05:58;6.47;;;3.93;;
5754;SDS011;2902;42.130;24.732;2023-10-08T06:08:42;4.37;;;3.30;;
5754;SDS011;2902;42.130;24.732;2023-10-08T06:11:17;4.27;;;3.13;;
5754;SDS011;2902;42.130;24.732;2023-10-08T06:13:57;6.00;;;3.33;;
5754;SDS011;2902;42.130;24.732;2023-10-08T06:16:26;7.73;;;3.60;;
5754;SDS011;2902;42.130;24.732;2023-10-08T06:19:06;8.17;;;3.47;;
5754;SDS011;2902;42.130;24.732;2023-10-08T06:21:34;3.03;;;2.83;;
5754;SDS011;2902;42.130;24.732;2023-10-08T06:24:02;3.70;;;3.30;;
5754;SDS011;2902;42.130;24.732;2023-10-08T06:26:34;5.40;;;3.07;;
5754;SDS011;2902;42.130;24.732;2023-10-08T06:29:05;6.97;;;3.30;;
5754;SDS011;2902;42.130;24.732;2023-10-08T06:31:44;6.80;;;3.60;;
5754;SDS011;2902;42.130;24.732;2023-10-08T06:34:16;2.90;;;2.70;;
5754;SDS011;2902;42.130;24.732;2023-10-08T06:36:46;6.43;;;3.67;;
5754;SDS011;2902;42.130;24.732;2023-10-08T06:39:18;4.00;;;3.30;;
5754;SDS011;2902;42.130;24.732;2023-10-08T06:41:50;8.70;;;3.57;;
5754;SDS011;2902;42.130;24.732;2023-10-08T06:44:20;13.47;;;3.77;;
5754;SDS011;2902;42.130;24.732;2023-10-08T06:46:47;5.73;;;3.83;;
5754;SDS011;2902;42.130;24.732;2023-10-08T06:49:17;4.63;;;4.23;;
5754;SDS011;2902;42.130;24.732;2023-10-08T06:51:45;24.70;;;5.23;;
5754;SDS011;2902;42.130;24.732;2023-10-08T06:54:13;5.50;;;4.00;;
5754;SDS011;2902;42.130;24.732;2023-10-08T06:56:42;6.87;;;5.90;;
5754;SDS011;2902;42.130;24.732;2023-10-08T06:59:11;9.13;;;6.97;;
5754;SDS011;2902;42.130;24.732;2023-10-08T07:01:40;13.43;;;7.20;;
5754;SDS011;2902;42.130;24.732;2023-10-08T07:04:11;60.00;;;10.50;;
5754;SDS011;2902;42.130;24.732;2023-10-08T07:06:38;21.83;;;8.90;;
5754;SDS011;2902;42.130;24.732;2023-10-08T07:09:05;14.07;;;8.87;;
5754;SDS011;2902;42.130;24.732;2023-10-08T07:11:39;15.27;;;9.27;;
5754;SDS011;2902;42.130;24.732;2023-10-08T07:14:10;16.60;;;8.67;;
5754;SDS011;2902;42.130;24.732;2023-10-08T07:16:40;20.40;;;9.00;;
5754;SDS011;2902;42.130;24.732;2023-10-08T07:19:07;29.60;;;8.83;;
5754;SDS011;2902;42.130;24.732;2023-10-08T07:21:43;12.93;;;8.73;;
5754;SDS011;2902;42.130;24.732;2023-10-08T07:24:11;15.57;;;8.93;;
5754;SDS011;2902;42.130;24.732;2023-10-08T07:26:40;17.27;;;8.67;;
5754;SDS011;2902;42.130;24.732;2023-10-08T07:29:12;21.10;;;7.00;;
5754;SDS011;2902;42.130;24.732;2023-10-08T07:31:43;18.43;;;6.37;;
5754;SDS011;2902;42.130;24.732;2023-10-08T07:34:14;11.00;;;5.60;;
5754;SDS011;2902;42.130;24.732;2023-10-08T07:36:43;20.57;;;5.40;;
5754;SDS011;2902;42.130;24.732;2023-10-08T07:39:12;9.03;;;4.47;;
5754;SDS011;2902;42.130;24.732;2023-10-08T07:41:50;19.67;;;4.83;;
5754;SDS011;2902;42.130;24.732;2023-10-08T07:44:17;45.33;;;5.63;;
5754;SDS011;2902;42.130;24.732;2023-10-08T07:46:47;20.90;;;5.10;;
5754;SDS011;2902;42.130;24.732;2023-10-08T07:49:15;33.73;;;5.50;;
5754;SDS011;2902;42.130;24.732;2023-10-08T07:51:42;11.20;;;3.80;;
5754;SDS011;2902;42.130;24.732;2023-10-08T07:54:16;18.00;;;4.67;;
5754;SDS011;2902;42.130;24.732;2023-10-08T07:56:44;152.77;;;14.57;;
5754;SDS011;2902;42.130;24.732;2023-10-08T07:59:13;11.10;;;4.67;;
5754;SDS011;2902;42.130;24.732;2023-10-08T08:01:41;29.17;;;4.73;;
5754;SDS011;2902;42.130;24.732;2023-10-08T08:04:10;24.13;;;5.27;;
5754;SDS011;2902;42.130;24.732;2023-10-08T08:06:46;16.83;;;4.30;;
5754;SDS011;2902;42.130;24.732;2023-10-08T08:09:15;10.17;;;4.70;;
5754;SDS011;2902;42.130;24.732;2023-10-08T08:11:44;13.70;;;4.73;;
5754;SDS011;2902;42.130;24.732;2023-10-08T08:14:12;51.93;;;7.57;;
5754;SDS011;2902;42.130;24.732;2023-10-08T08:16:42;18.00;;;5.03;;
5754;SDS011;2902;42.130;24.732;2023-10-08T08:19:12;17.33;;;5.57;;
5754;SDS011;2902;42.130;24.732;2023-10-08T08:21:40;15.33;;;4.90;;
5754;SDS011;2902;42.130;24.732;2023-10-08T08:24:10;16.30;;;5.00;;
5754;SDS011;2902;42.130;24.732;2023-10-08T08:26:37;11.53;;;5.07;;
5754;SDS011;2902;42.130;24.732;2023-10-08T08:29:09;8.83;;;4.90;;
5754;SDS011;2902;42.130;24.732;2023-10-08T08:31:40;11.17;;;5.53;;
5754;SDS011;2902;42.130;24.732;2023-10-08T08:34:12;9.30;;;4.67;;
5754;SDS011;2902;42.130;24.732;2023-10-08T08:36:44;21.33;;;5.37;;
5754;SDS011;2902;42.130;24.732;2023-10-08T08:39:14;12.47;;;4.73;;
5754;SDS011;2902;42.130;24.732;2023-10-08T08:41:54;18.83;;;5.87;;
5754;SDS011;2902;42.130;24.732;2023-10-08T08:44:26;8.10;;;5.00;;
5754;SDS011;2902;42.130;24.732;2023-10-08T08:46:55;17.23;;;5.87;;
5754;SDS011;2902;42.130;24.732;2023-10-08T08:49:25;8.30;;;5.40;;
5754;SDS011;2902;42.130;24.732;2023-10-08T08:51:54;10.37;;;4.83;;
5754;SDS011;2902;42.130;24.732;2023-10-08T08:54:26;12.57;;;5.40;;
5754;SDS011;2902;42.130;24.732;2023-10-08T08:56:55;6.27;;;5.60;;
5754;SDS011;2902;42.130;24.732;2023-10-08T08:59:23;9.17;;;5.70;;
5754;SDS011;2902;42.130;24.732;2023-10-08T09:01:50;7.87;;;4.90;;
5754;SDS011;2902;42.130;24.732;2023-10-08T09:04:28;15.13;;;5.37;;
5754;SDS011;2902;42.130;24.732;2023-10-08T09:06:55;11.27;;;5.43;;
5754;SDS011;2902;42.130;24.732;2023-10-08T09:09:22;13.00;;;4.90;;
5754;SDS011;2902;42.130;24.732;2023-10-08T09:11:51;13.32;;;5.38;;
5754;SDS011;2902;42.130;24.732;2023-10-08T09:14:20;27.50;;;6.30;;
5754;SDS011;2902;42.130;24.732;2023-10-08T09:16:48;17.93;;;4.77;;
5754;SDS011;2902;42.130;24.732;2023-10-08T09:19:14;19.67;;;4.13;;
5754;SDS011;2902;42.130;24.732;2023-10-08T09:21:45;7.20;;;3.80;;
5754;SDS011;2902;42.130;24.732;2023-10-08T09:24:25;25.73;;;5.57;;
5754;SDS011;2902;42.130;24.732;2023-10-08T09:26:52;15.07;;;5.40;;
5754;SDS011;2902;42.130;24.732;2023-10-08T09:29:22;12.23;;;4.80;;
5754;SDS011;2902;42.130;24.732;2023-10-08T09:31:51;9.00;;;4.50;;
5754;SDS011;2902;42.130;24.732;2023-10-08T09:34:20;11.40;;;4.63;;
5754;SDS011;2902;42.130;24.732;2023-10-08T09:36:49;10.67;;;3.93;;
5754;SDS011;2902;42.130;24.732;2023-10-08T09:39:16;7.53;;;4.37;;
5754;SDS011;2902;42.130;24.732;2023-10-08T09:41:49;7.13;;;4.07;;
5754;SDS011;2902;42.130;24.732;2023-10-08T09:44:16;17.30;;;4.70;;
5754;SDS011;2902;42.130;24.732;2023-10-08T09:46:46;81.53;;;8.03;;
5754;SDS011;2902;42.130;24.732;2023-10-08T09:49:18;11.43;;;4.63;;
5754;SDS011;2902;42.130;24.732;2023-10-08T09:51:56;11.53;;;3.90;;
5754;SDS011;2902;42.130;24.732;2023-10-08T09:54:23;6.47;;;3.83;;
5754;SDS011;2902;42.130;24.732;2023-10-08T09:56:57;12.70;;;4.43;;
5754;SDS011;2902;42.130;24.732;2023-10-08T09:59:25;10.83;;;4.17;;
5754;SDS011;2902;42.130;24.732;2023-10-08T10:01:53;12.83;;;4.20;;
5754;SDS011;2902;42.130;24.732;2023-10-08T10:04:24;10.70;;;3.97;;
5754;SDS011;2902;42.130;24.732;2023-10-08T10:06:53;17.73;;;4.57;;
5754;SDS011;2902;42.130;24.732;2023-10-08T10:09:24;14.60;;;4.33;;
5754;SDS011;2902;42.130;24.732;2023-10-08T10:11:53;14.83;;;3.57;;
5754;SDS011;2902;42.130;24.732;2023-10-08T10:14:22;14.70;;;4.50;;
5754;SDS011;2902;42.130;24.732;2023-10-08T10:16:55;6.83;;;4.13;;
5754;SDS011;2902;42.130;24.732;2023-10-08T10:19:36;24.07;;;4.53;;
5754;SDS011;2902;42.130;24.732;2023-10-08T10:22:04;15.33;;;5.23;;
5754;SDS011;2902;42.130;24.732;2023-10-08T10:24:32;18.10;;;4.30;;
5754;SDS011;2902;42.130;24.732;2023-10-08T10:27:09;30.03;;;5.77;;
5754;SDS011;2902;42.130;24.732;2023-10-08T10:29:37;31.53;;;5.70;;
5754;SDS011;2902;42.130;24.732;2023-10-08T10:32:04;18.67;;;4.47;;
5754;SDS011;2902;42.130;24.732;2023-10-08T10:34:31;13.10;;;5.10;;
5754;SDS011;2902;42.130;24.732;2023-10-08T10:37:00;5.77;;;4.20;;
5754;SDS011;2902;42.130;24.732;2023-10-08T10:39:35;7.97;;;3.97;;
5754;SDS011;2902;42.130;24.732;2023-10-08T10:42:05;21.10;;;4.83;;
5754;SDS011;2902;42.130;24.732;2023-10-08T10:44:45;17.13;;;4.67;;
5754;SDS011;2902;42.130;24.732;2023-10-08T10:47:14;9.20;;;4.03;;
5754;SDS011;2902;42.130;24.732;2023-10-08T10:50:07;26.03;;;5.30;;
5754;SDS011;2902;42.130;24.732;2023-10-08T10:52:51;8.40;;;4.27;;
5754;SDS011;2902;42.130;24.732;2023-10-08T10:55:20;10.70;;;4.03;;
5754;SDS011;2902;42.130;24.732;2023-10-08T10:57:48;10.07;;;3.50;;
5754;SDS011;2902;42.130;24.732;2023-10-08T11:00:22;12.40;;;3.80;;
5754;SDS011;2902;42.130;24.732;2023-10-08T11:03:06;7.73;;;4.23;;
5754;SDS011;2902;42.130;24.732;2023-10-08T11:05:41;17.87;;;3.60;;
5754;SDS011;2902;42.130;24.732;2023-10-08T11:08:14;13.40;;;4.30;;
5754;SDS011;2902;42.130;24.732;2023-10-08T11:10:46;22.47;;;4.93;;
5754;SDS011;2902;42.130;24.732;2023-10-08T11:13:16;10.33;;;4.63;;
5754;SDS011;2902;42.130;24.732;2023-10-08T11:15:45;27.83;;;5.20;;
5754;SDS011;2902;42.130;24.732;2023-10-08T11:18:15;6.90;;;3.37;;
5754;SDS011;2902;42.130;24.732;2023-10-08T11:20:43;14.57;;;3.50;;
5754;SDS011;2902;42.130;24.732;2023-10-08T11:23:10;13.50;;;4.00;;
5754;SDS011;2902;42.130;24.732;2023-10-08T11:25:54;11.47;;;3.90;;
5754;SDS011;2902;42.130;24.732;2023-10-08T11:28:25;7.73;;;3.47;;
5754;SDS011;2902;42.130;24.732;2023-10-08T11:30:52;10.03;;;3.43;;
5754;SDS011;2902;42.130;24.732;2023-10-08T11:33:19;11.60;;;3.67;;
5754;SDS011;2902;42.130;24.732;2023-10-08T11:35:57;10.37;;;3.50;;
5754;SDS011;2902;42.130;24.732;2023-10-08T11:38:27;10.80;;;3.73;;
5754;SDS011;2902;42.130;24.732;2023-10-08T11:41:12;37.63;;;4.53;;
5754;SDS011;2902;42.130;24.732;2023-10-08T11:43:46;13.73;;;4.00;;
5754;SDS011;2902;42.130;24.732;2023-10-08T11:46:18;15.90;;;4.07;;
5754;SDS011;2902;42.130;24.732;2023-10-08T11:48:47;14.77;;;3.83;;
5754;SDS011;2902;42.130;24.732;2023-10-08T11:51:13;15.53;;;4.10;;
5754;SDS011;2902;42.130;24.732;2023-10-08T11:53:42;9.43;;;3.50;;
5754;SDS011;2902;42.130;24.732;2023-10-08T11:56:09;17.53;;;4.10;;
5754;SDS011;2902;42.130;24.732;2023-10-08T11:58:40;7.40;;;3.60;;
5754;SDS011;2902;42.130;24.732;2023-10-08T12:01:09;9.50;;;3.50;;
5754;SDS011;2902;42.130;24.732;2023-10-08T12:03:41;16.33;;;3.30;;
5754;SDS011;2902;42.130;24.732;2023-10-08T12:06:08;7.47;;;3.47;;
5754;SDS011;2902;42.130;24.732;2023-10-08T12:08:40;3.67;;;3.37;;
5754;SDS011;2902;42.130;24.732;2023-10-08T12:11:10;8.87;;;3.90;;
5754;SDS011;2902;42.130;24.732;2023-10-08T12:13:37;9.57;;;3.77;;
5754;SDS011;2902;42.130;24.732;2023-10-08T12:16:10;16.17;;;3.60;;
5754;SDS011;2902;42.130;24.732;2023-10-08T12:18:46;7.97;;;3.63;;
5754;SDS011;2902;42.130;24.732;2023-10-08T12:21:18;16.43;;;3.97;;
5754;SDS011;2902;42.130;24.732;2023-10-08T12:23:46;8.87;;;3.83;;
5754;SDS011;2902;42.130;24.732;2023-10-08T12:26:15;4.83;;;3.13;;
5754;SDS011;2902;42.130;24.732;2023-10-08T12:28:44;11.67;;;4.03;;
5754;SDS011;2902;42.130;24.732;2023-10-08T12:31:12;20.27;;;4.13;;
5754;SDS011;2902;42.130;24.732;2023-10-08T12:33:40;25.93;;;5.53;;
5754;SDS011;2902;42.130;24.732;2023-10-08T12:36:08;5.93;;;3.47;;
5754;SDS011;2902;42.130;24.732;2023-10-08T12:38:38;5.47;;;4.00;;
5754;SDS011;2902;42.130;24.732;2023-10-08T12:41:07;12.13;;;3.77;;
5754;SDS011;2902;42.130;24.732;2023-10-08T12:43:41;6.20;;;3.70;;
5754;SDS011;2902;42.130;24.732;2023-10-08T12:46:12;9.90;;;3.63;;
5754;SDS011;2902;42.130;24.732;2023-10-08T12:48:44;7.90;;;3.70;;
5754;SDS011;2902;42.130;24.732;2023-10-08T12:51:13;11.00;;;3.47;;
5754;SDS011;2902;42.130;24.732;2023-10-08T12:53:41;8.77;;;3.63;;
5754;SDS011;2902;42.130;24.732;2023-10-08T12:56:15;5.30;;;3.77;;
5754;SDS011;2902;42.130;24.732;2023-10-08T12:58:46;15.77;;;4.03;;
5754;SDS011;2902;42.130;24.732;2023-10-08T13:01:15;16.70;;;4.60;;
5754;SDS011;2902;42.130;24.732;2023-10-08T13:03:43;11.57;;;3.73;;
5754;SDS011;2902;42.130;24.732;2023-10-08T13:06:14;6.37;;;3.57;;
5754;SDS011;2902;42.130;24.732;2023-10-08T13:08:47;11.30;;;3.77;;
5754;SDS011;2902;42.130;24.732;2023-10-08T13:11:14;4.90;;;2.80;;
5754;SDS011;2902;42.130;24.732;2023-10-08T13:13:45;4.87;;;3.07;;
5754;SDS011;2902;42.130;24.732;2023-10-08T13:16:12;6.80;;;3.93;;
5754;SDS011;2902;42.130;24.732;2023-10-08T13:18:40;13.07;;;4.57;;
5754;SDS011;2902;42.130;24.732;2023-10-08T13:21:08;9.97;;;3.43;;
5754;SDS011;2902;42.130;24.732;2023-10-08T13:23:35;10.37;;;4.00;;
5754;SDS011;2902;42.130;24.732;2023-10-08T13:26:02;10.30;;;3.47;;
5754;SDS011;2902;42.130;24.732;2023-10-08T13:28:32;10.40;;;3.57;;
5754;SDS011;2902;42.130;24.732;2023-10-08T13:30:59;7.77;;;3.13;;
5754;SDS011;2902;42.130;24.732;2023-10-08T13:33:34;5.90;;;4.07;;
5754;SDS011;2902;42.130;24.732;2023-10-08T13:36:02;8.40;;;3.67;;
5754;SDS011;2902;42.130;24.732;2023-10-08T13:38:29;10.00;;;3.73;;
5754;SDS011;2902;42.130;24.732;2023-10-08T13:40:56;8.57;;;3.70;;
5754;SDS011;2902;42.130;24.732;2023-10-08T13:43:30;7.47;;;3.60;;
5754;SDS011;2902;42.130;24.732;2023-10-08T13:46:01;8.47;;;3.43;;
5754;SDS011;2902;42.130;24.732;2023-10-08T13:48:31;8.73;;;3.40;;
5754;SDS011;2902;42.130;24.732;2023-10-08T13:50:59;7.03;;;3.63;;
5754;SDS011;2902;42.130;24.732;2023-10-08T13:53:30;7.70;;;3.50;;
5754;SDS011;2902;42.130;24.732;2023-10-08T13:55:58;5.70;;;3.37;;
5754;SDS011;2902;42.130;24.732;2023-10-08T13:58:26;6.23;;;3.47;;
5754;SDS011;2902;42.130;24.732;2023-10-08T14:00:55;4.67;;;2.90;;
5754;SDS011;2902;42.130;24.732;2023-10-08T14:03:22;5.50;;;3.57;;
5754;SDS011;2902;42.130;24.732;2023-10-08T14:05:49;6.80;;;3.70;;
5754;SDS011;2902;42.130;24.732;2023-10-08T14:08:17;8.70;;;3.50;;
5754;SDS011;2902;42.130;24.732;2023-10-08T14:10:45;7.47;;;3.50;;
5754;SDS011;2902;42.130;24.732;2023-10-08T14:13:14;6.10;;;3.20;;
5754;SDS011;2902;42.130;24.732;2023-10-08T14:15:44;9.67;;;3.53;;
5754;SDS011;2902;42.130;24.732;2023-10-08T14:18:14;9.97;;;3.50;;
5754;SDS011;2902;42.130;24.732;2023-10-08T14:20:42;6.70;;;3.50;;
5754;SDS011;2902;42.130;24.732;2023-10-08T14:23:12;5.67;;;2.90;;
5754;SDS011;2902;42.130;24.732;2023-10-08T14:25:42;10.50;;;3.07;;
5754;SDS011;2902;42.130;24.732;2023-10-08T14:28:12;14.27;;;4.47;;
5754;SDS011;2902;42.130;24.732;2023-10-08T14:30:48;6.40;;;3.27;;
5754;SDS011;2902;42.130;24.732;2023-10-08T14:33:20;11.37;;;3.50;;
5754;SDS011;2902;42.130;24.732;2023-10-08T14:35:52;5.73;;;3.33;;
5754;SDS011;2902;42.130;24.732;2023-10-08T14:38:35;10.70;;;4.37;;
5754;SDS011;2902;42.130;24.732;2023-10-08T14:41:19;10.97;;;4.83;;
5754;SDS011;2902;42.130;24.732;2023-10-08T14:44:05;24.03;;;10.40;;
5754;SDS011;2902;42.130;24.732;2023-10-08T14:46:32;34.87;;;5.67;;
5754;SDS011;2902;42.130;24.732;2023-10-08T14:49:02;18.40;;;4.80;;
5754;SDS011;2902;42.130;24.732;2023-10-08T14:51:35;16.83;;;4.83;;
5754;SDS011;2902;42.130;24.732;2023-10-08T14:54:03;12.07;;;4.47;;
5754;SDS011;2902;42.130;24.732;2023-10-08T14:56:32;13.57;;;5.53;;
5754;SDS011;2902;42.130;24.732;2023-10-08T14:58:59;13.13;;;3.47;;
5754;SDS011;2902;42.130;24.732;2023-10-08T15:01:27;8.53;;;2.83;;
5754;SDS011;2902;42.130;24.732;2023-10-08T15:03:58;10.50;;;3.90;;
5754;SDS011;2902;42.130;24.732;2023-10-08T15:06:25;24.80;;;4.30;;
5754;SDS011;2902;42.130;24.732;2023-10-08T15:08:51;8.73;;;3.77;;
5754;SDS011;2902;42.130;24.732;2023-10-08T15:11:18;31.20;;;5.40;;
5754;SDS011;2902;42.130;24.732;2023-10-08T15:13:45;25.60;;;4.67;;
5754;SDS011;2902;42.130;24.732;2023-10-08T15:16:14;12.20;;;3.90;;
5754;SDS011;2902;42.130;24.732;2023-10-08T15:18:44;8.27;;;3.30;;
5754;SDS011;2902;42.130;24.732;2023-10-08T15:21:11;13.23;;;3.87;;